createdAt,value
2022-12-23T00:00:04.687Z,1.03
2022-12-23T00:02:32.675Z,1.20
2022-12-23T00:04:55.001Z,1.37
2022-12-23T00:07:17.261Z,1.20
2022-12-23T00:09:39.511Z,1.40
2022-12-23T00:12:20.511Z,0.90
2022-12-23T00:15:01.499Z,1.53
2022-12-23T00:17:23.768Z,1.00
2022-12-23T00:19:46.123Z,1.17
2022-12-23T00:22:08.584Z,0.97
2022-12-23T00:24:30.819Z,0.97
2022-12-23T00:26:53.370Z,0.90
2022-12-23T00:29:16.364Z,1.17
2022-12-23T00:31:38.704Z,0.90
2022-12-23T00:34:00.937Z,1.00
2022-12-23T00:36:24.428Z,0.80
2022-12-23T00:39:05.638Z,0.93
2022-12-23T00:41:47.289Z,1.20
2022-12-23T00:44:09.760Z,2.83
2022-12-23T00:46:32.228Z,0.87
2022-12-23T00:49:13.221Z,0.90
2022-12-23T00:51:37.309Z,0.90
2022-12-23T00:53:59.840Z,0.87
2022-12-23T00:56:22.164Z,2.73
2022-12-23T00:58:44.507Z,0.87
2022-12-23T01:01:28.640Z,2.10
2022-12-23T01:04:09.846Z,0.77
2022-12-23T01:06:32.422Z,0.80
2022-12-23T01:08:54.827Z,0.87
2022-12-23T01:11:17.061Z,0.90
2022-12-23T01:13:40.186Z,0.80
2022-12-23T01:16:16.892Z,0.70
2022-12-23T01:18:40.986Z,0.90
2022-12-23T01:21:04.145Z,2.10
2022-12-23T01:23:26.447Z,1.47
2022-12-23T01:25:56.367Z,0.80
2022-12-23T01:28:28.454Z,0.80
2022-12-23T01:30:53.530Z,1.00
2022-12-23T01:33:15.995Z,1.80
2022-12-23T01:35:38.309Z,0.80
2022-12-23T01:38:00.878Z,0.73
2022-12-23T01:40:23.239Z,0.80
2022-12-23T01:42:46.652Z,0.80
2022-12-23T01:45:14.991Z,0.90
2022-12-23T01:47:39.793Z,0.70
2022-12-23T01:50:05.291Z,0.80
2022-12-23T01:52:27.854Z,0.80
2022-12-23T01:58:06.454Z,0.70
2022-12-23T02:00:47.611Z,1.43
2022-12-23T02:03:28.745Z,0.70
2022-12-23T02:05:52.332Z,0.80
2022-12-23T02:08:36.035Z,0.80
2022-12-23T02:11:07.024Z,1.03
2022-12-23T02:14:11.100Z,0.80
2022-12-23T02:16:36.790Z,1.00
2022-12-23T02:19:34.690Z,1.00
2022-12-23T02:22:08.913Z,1.17
2022-12-23T02:25:00.216Z,1.20
2022-12-23T02:27:35.491Z,1.70
2022-12-23T02:30:16.506Z,2.00
2022-12-23T02:32:58.073Z,1.57
2022-12-23T02:35:23.161Z,2.23
2022-12-23T02:37:48.480Z,1.60
2022-12-23T02:40:32.313Z,1.57
2022-12-23T02:43:15.327Z,1.80
2022-12-23T02:45:41.678Z,1.50
2022-12-23T02:48:09.953Z,1.57
2022-12-23T02:50:34.166Z,1.77
2022-12-23T02:52:59.085Z,1.97
2022-12-23T02:55:23.286Z,2.70
2022-12-23T02:57:47.013Z,1.53
2022-12-23T03:00:09.815Z,1.83
2022-12-23T03:02:33.653Z,1.20
2022-12-23T03:04:55.983Z,3.77
2022-12-23T03:07:20.150Z,1.00
2022-12-23T03:09:45.549Z,2.00
2022-12-23T03:12:12.861Z,1.00
2022-12-23T03:14:39.918Z,1.23
2022-12-23T03:17:21.082Z,1.00
2022-12-23T03:19:49.514Z,1.23
2022-12-23T03:22:20.893Z,1.23
2022-12-23T03:24:46.431Z,2.27
2022-12-23T03:27:12.046Z,1.03
2022-12-23T03:29:45.029Z,1.03
2022-12-23T03:32:08.433Z,1.40
2022-12-23T03:34:33.354Z,1.03
2022-12-23T03:36:57.524Z,2.07
2022-12-23T03:39:21.554Z,1.60
2022-12-23T03:41:45.978Z,1.40
2022-12-23T03:44:16.539Z,1.50
2022-12-23T03:46:48.316Z,1.20
2022-12-23T03:49:15.307Z,1.70
2022-12-23T03:51:40.521Z,1.50
2022-12-23T03:54:08.839Z,1.33
2022-12-23T03:56:40.111Z,2.57
2022-12-23T03:59:07.217Z,1.57
2022-12-23T04:01:35.887Z,3.90
2022-12-23T04:04:03.125Z,1.50
2022-12-23T04:06:27.636Z,1.50
2022-12-23T04:08:50.900Z,1.70
2022-12-23T04:11:13.587Z,1.00
2022-12-23T04:13:35.891Z,1.80
2022-12-23T04:15:59.009Z,2.10
2022-12-23T04:18:21.501Z,1.00
2022-12-23T04:20:43.846Z,2.77
2022-12-23T04:23:06.201Z,1.40
2022-12-23T04:25:28.577Z,2.20
2022-12-23T04:27:50.780Z,2.40
2022-12-23T04:30:16.423Z,1.20
2022-12-23T04:32:38.704Z,1.27
2022-12-23T04:35:00.889Z,1.57
2022-12-23T04:37:23.236Z,1.30
2022-12-23T04:39:45.602Z,1.40
2022-12-23T04:42:07.851Z,1.50
2022-12-23T04:44:30.189Z,1.60
2022-12-23T04:46:52.619Z,2.73
2022-12-23T04:49:14.920Z,2.10
2022-12-23T04:51:37.327Z,2.73
2022-12-23T04:53:59.697Z,1.77
2022-12-23T04:56:22.099Z,1.97
2022-12-23T04:58:44.418Z,2.00
2022-12-23T05:01:11.130Z,3.63
2022-12-23T05:03:33.750Z,3.50
2022-12-23T05:05:56.074Z,2.50
2022-12-23T05:08:18.304Z,2.53
2022-12-23T05:10:40.574Z,2.50
2022-12-23T05:13:06.955Z,2.80
2022-12-23T05:15:29.183Z,2.73
2022-12-23T05:17:51.451Z,2.10
2022-12-23T05:20:13.763Z,2.67
2022-12-23T05:22:35.990Z,2.87
2022-12-23T05:24:58.213Z,2.50
2022-12-23T05:27:20.553Z,2.90
2022-12-23T05:29:42.874Z,2.20
2022-12-23T05:32:07.641Z,1.70
2022-12-23T05:34:30.100Z,2.00
2022-12-23T05:37:01.555Z,3.77
2022-12-23T05:39:23.768Z,2.50
2022-12-23T05:41:46.074Z,1.60
2022-12-23T05:44:08.410Z,1.97
2022-12-23T05:46:30.900Z,2.63
2022-12-23T05:48:53.415Z,1.87
2022-12-23T05:51:15.650Z,4.77
2022-12-23T05:53:37.946Z,2.17
2022-12-23T05:56:00.138Z,2.47
2022-12-23T05:58:22.464Z,2.73
2022-12-23T06:00:44.755Z,3.63
2022-12-23T06:03:08.149Z,3.00
2022-12-23T06:05:30.588Z,1.83
2022-12-23T06:07:52.890Z,2.70
2022-12-23T06:10:15.173Z,2.27
2022-12-23T06:12:37.957Z,3.90
2022-12-23T06:15:00.333Z,2.17
2022-12-23T06:17:23.129Z,2.27
2022-12-23T06:19:47.289Z,2.03
2022-12-23T06:22:09.585Z,2.60
2022-12-23T06:24:32.275Z,3.53
2022-12-23T06:26:57.330Z,2.10
2022-12-23T06:29:21.422Z,3.03
2022-12-23T06:31:43.988Z,3.03
2022-12-23T06:34:08.043Z,2.63
2022-12-23T06:36:30.469Z,2.43
2022-12-23T06:38:52.720Z,5.40
2022-12-23T06:41:15.238Z,3.30
2022-12-23T06:43:37.548Z,5.73
2022-12-23T06:46:00.214Z,3.87
2022-12-23T06:48:29.325Z,3.67
2022-12-23T06:50:51.784Z,3.80
2022-12-23T06:53:14.667Z,4.00
2022-12-23T06:55:37.124Z,4.07
2022-12-23T06:58:02.374Z,4.07
2022-12-23T07:00:27.614Z,4.90
2022-12-23T07:02:50.257Z,4.27
2022-12-23T07:05:12.774Z,4.83
2022-12-23T07:07:35.030Z,3.47
2022-12-23T07:10:06.377Z,5.63
2022-12-23T07:12:28.707Z,3.70
2022-12-23T07:14:50.952Z,4.80
2022-12-23T07:17:18.136Z,6.00
2022-12-23T07:19:41.730Z,4.37
2022-12-23T07:22:04.698Z,4.57
2022-12-23T07:24:26.925Z,5.67
2022-12-23T07:26:49.526Z,4.87
2022-12-23T07:29:11.890Z,4.20
2022-12-23T07:31:37.119Z,4.47
2022-12-23T07:34:03.073Z,5.00
2022-12-23T07:36:25.431Z,4.63
2022-12-23T07:38:51.535Z,7.23
2022-12-23T07:41:13.871Z,5.70
2022-12-23T07:43:36.266Z,5.53
2022-12-23T07:46:00.875Z,9.70
2022-12-23T07:48:23.344Z,5.50
2022-12-23T07:50:45.745Z,7.20
2022-12-23T07:53:08.040Z,5.93
2022-12-23T07:55:30.487Z,4.67
2022-12-23T07:57:53.345Z,5.20
2022-12-23T08:00:15.718Z,6.17
2022-12-23T08:02:38.421Z,7.03
2022-12-23T08:05:01.010Z,6.10
2022-12-23T08:07:23.492Z,8.57
2022-12-23T08:09:45.771Z,5.50
2022-12-23T08:12:08.036Z,8.77
2022-12-23T08:14:30.273Z,8.30
2022-12-23T08:16:52.684Z,6.03
2022-12-23T08:19:14.997Z,7.10
2022-12-23T08:21:37.436Z,6.50
2022-12-23T08:23:59.874Z,6.80
2022-12-23T08:26:23.260Z,5.43
2022-12-23T08:28:46.099Z,6.33
2022-12-23T08:31:11.464Z,5.10
2022-12-23T08:33:34.116Z,5.23
2022-12-23T08:35:57.495Z,6.50
2022-12-23T08:38:20.247Z,5.57
2022-12-23T08:40:43.108Z,4.37
2022-12-23T08:43:06.260Z,4.83
2022-12-23T08:45:31.998Z,4.47
2022-12-23T08:47:54.640Z,6.87
2022-12-23T08:50:17.089Z,6.43
2022-12-23T08:52:39.603Z,5.73
2022-12-23T08:55:04.469Z,4.03
2022-12-23T08:57:27.037Z,4.67
2022-12-23T08:59:53.546Z,4.90
2022-12-23T09:02:25.627Z,3.87
2022-12-23T09:04:48.476Z,4.27
2022-12-23T09:07:14.518Z,3.67
2022-12-23T09:09:38.506Z,3.87
2022-12-23T09:12:00.777Z,3.80
2022-12-23T09:14:24.132Z,3.03
2022-12-23T09:16:46.594Z,3.37
2022-12-23T09:19:09.002Z,4.50
2022-12-23T09:21:31.392Z,2.70
2022-12-23T09:23:59.749Z,2.70
2022-12-23T09:26:23.732Z,5.20
2022-12-23T09:28:45.983Z,6.67
2022-12-23T09:31:09.302Z,4.73
2022-12-23T09:33:32.762Z,5.70
2022-12-23T09:35:59.998Z,4.40
2022-12-23T09:38:28.524Z,3.73
2022-12-23T09:40:51.806Z,3.00
2022-12-23T09:43:37.428Z,3.03
2022-12-23T09:46:00.313Z,3.77
2022-12-23T09:51:07.802Z,4.03
2022-12-23T09:53:41.863Z,3.70
2022-12-23T09:56:22.821Z,6.93
2022-12-23T09:58:51.571Z,3.67
2022-12-23T10:01:23.137Z,4.27
2022-12-23T10:04:11.221Z,4.57
2022-12-23T10:06:34.375Z,4.87
2022-12-23T10:09:01.879Z,6.17
2022-12-23T10:11:28.975Z,6.10
2022-12-23T10:13:53.796Z,6.03
2022-12-23T10:16:21.055Z,7.63
2022-12-23T10:19:02.304Z,7.57
2022-12-23T10:21:28.667Z,9.30
2022-12-23T10:23:52.419Z,8.60
2022-12-23T10:26:24.062Z,8.73
2022-12-23T10:28:46.370Z,8.37
2022-12-23T10:31:39.147Z,8.00
2022-12-23T10:34:06.038Z,9.40
2022-12-23T10:36:45.782Z,6.97
2022-12-23T10:39:28.293Z,13.13
2022-12-23T10:42:02.917Z,8.97
2022-12-23T10:44:43.552Z,8.33
2022-12-23T10:47:08.836Z,11.47
2022-12-23T10:49:31.125Z,9.57
2022-12-23T10:51:57.633Z,11.70
2022-12-23T10:54:32.239Z,7.47
2022-12-23T10:57:07.335Z,12.27
2022-12-23T10:59:34.498Z,8.90
2022-12-23T11:02:03.710Z,11.33
2022-12-23T11:04:36.019Z,10.60
2022-12-23T11:07:26.364Z,11.03
2022-12-23T11:09:47.577Z,9.53
2022-12-23T11:12:11.825Z,10.97
2022-12-23T11:14:36.400Z,9.30
2022-12-23T11:16:58.965Z,11.17
2022-12-23T11:19:21.818Z,7.57
2022-12-23T11:21:55.443Z,5.70
2022-12-23T11:24:19.130Z,5.53
2022-12-23T11:26:41.762Z,6.63
2022-12-23T11:29:06.352Z,4.77
2022-12-23T11:31:32.703Z,4.83
2022-12-23T11:34:02.492Z,4.47
2022-12-23T11:36:25.821Z,3.83
2022-12-23T11:39:08.051Z,3.93
2022-12-23T11:41:34.634Z,3.20
2022-12-23T11:44:05.902Z,3.03
2022-12-23T11:46:32.892Z,4.13
2022-12-23T11:49:13.449Z,1.90
2022-12-23T11:51:36.401Z,2.30
2022-12-23T11:54:02.831Z,3.23
2022-12-23T11:56:26.864Z,2.03
2022-12-23T11:58:52.395Z,2.83
2022-12-23T12:01:17.582Z,2.40
2022-12-23T12:03:46.052Z,2.40
2022-12-23T12:06:08.968Z,2.60
2022-12-23T12:08:37.607Z,3.50
2022-12-23T12:11:02.543Z,2.67
2022-12-23T12:13:29.061Z,2.97
2022-12-23T12:15:57.147Z,2.57
2022-12-23T12:18:20.600Z,2.40
2022-12-23T12:20:46.020Z,2.13
2022-12-23T12:23:18.489Z,2.13
2022-12-23T12:25:46.969Z,3.20
2022-12-23T12:28:49.273Z,2.40
2022-12-23T12:31:17.915Z,1.60
2022-12-23T12:33:45.766Z,1.17
2022-12-23T12:36:08.225Z,1.30
2022-12-23T12:38:34.541Z,1.57
2022-12-23T12:41:08.178Z,1.60
2022-12-23T12:43:33.549Z,0.80
2022-12-23T12:46:25.266Z,1.30
2022-12-23T12:48:49.848Z,0.70
2022-12-23T12:51:39.183Z,0.80
2022-12-23T12:54:15.096Z,1.10
2022-12-23T12:56:51.078Z,1.30
2022-12-23T12:59:17.773Z,0.70
2022-12-23T13:02:13.384Z,1.20
2022-12-23T13:04:44.694Z,0.60
2022-12-23T13:07:19.273Z,0.80
2022-12-23T13:09:51.368Z,0.52
2022-12-23T13:12:46.271Z,0.60
2022-12-23T13:15:24.300Z,0.70
2022-12-23T13:17:52.002Z,2.38
2022-12-23T13:20:28.420Z,0.60
2022-12-23T13:22:54.649Z,0.55
2022-12-23T13:25:20.229Z,1.40
2022-12-23T13:27:48.882Z,0.57
2022-12-23T13:30:14.581Z,0.57
2022-12-23T13:33:09.463Z,0.73
2022-12-23T13:35:50.773Z,0.50
2022-12-23T13:38:32.304Z,0.80
2022-12-23T13:41:05.804Z,0.60
2022-12-23T13:43:33.259Z,0.50
2022-12-23T13:45:58.132Z,0.60
2022-12-23T13:48:37.497Z,0.80
2022-12-23T13:51:58.174Z,0.60
2022-12-23T13:54:40.716Z,1.45
2022-12-23T13:57:20.551Z,0.50
2022-12-23T13:59:43.976Z,0.70
2022-12-23T14:02:26.268Z,0.77
2022-12-23T14:04:55.090Z,1.17
2022-12-23T14:07:21.425Z,0.60
2022-12-23T14:09:43.963Z,0.60
2022-12-23T14:12:12.015Z,0.70
2022-12-23T14:14:34.878Z,1.95
2022-12-23T14:17:13.343Z,2.00
2022-12-23T14:19:47.128Z,0.93
2022-12-23T14:22:28.269Z,0.70
2022-12-23T14:24:50.564Z,0.73
2022-12-23T14:27:24.229Z,1.23
2022-12-23T14:29:46.751Z,0.57
2022-12-23T14:32:23.019Z,0.87
2022-12-23T14:35:04.885Z,0.80
2022-12-23T14:37:27.500Z,0.60
2022-12-23T14:39:50.049Z,0.82
2022-12-23T14:42:16.685Z,1.17
2022-12-23T14:44:43.628Z,1.13
2022-12-23T14:47:06.694Z,2.97
2022-12-23T14:49:43.093Z,1.80
2022-12-23T14:52:24.043Z,0.60
2022-12-23T14:55:06.044Z,0.70
2022-12-23T14:57:30.936Z,1.73
2022-12-23T14:59:59.937Z,0.70
2022-12-23T15:02:34.552Z,0.60
2022-12-23T15:04:57.919Z,0.77
2022-12-23T15:07:25.855Z,0.70
2022-12-23T15:09:49.291Z,0.40
2022-12-23T15:12:16.680Z,0.67
2022-12-23T15:14:43.500Z,1.60
2022-12-23T15:17:24.072Z,0.70
2022-12-23T15:19:47.851Z,1.37
2022-12-23T15:22:21.248Z,0.98
2022-12-23T15:24:47.854Z,0.70
2022-12-23T15:27:26.457Z,1.07
2022-12-23T15:29:52.384Z,0.85
2022-12-23T15:32:14.987Z,2.30
2022-12-23T15:34:37.269Z,0.60
2022-12-23T15:37:00.014Z,0.85
2022-12-23T15:39:32.403Z,1.02
2022-12-23T15:41:55.022Z,0.80
2022-12-23T15:44:23.369Z,2.38
2022-12-23T15:46:45.803Z,0.85
2022-12-23T15:49:10.338Z,1.80
2022-12-23T15:52:07.250Z,1.27
2022-12-23T15:54:22.329Z,1.17
2022-12-23T15:56:46.914Z,0.68
2022-12-23T15:59:18.307Z,4.20
2022-12-23T16:01:41.910Z,1.43
2022-12-23T16:04:04.563Z,1.25
2022-12-23T16:06:35.415Z,3.45
2022-12-23T16:08:59.049Z,1.23
2022-12-23T16:14:53.175Z,2.17
2022-12-23T16:17:18.212Z,1.77
2022-12-23T16:19:51.067Z,3.15
2022-12-23T16:22:19.404Z,6.07
2022-12-23T16:24:46.285Z,4.07
2022-12-23T16:27:12.093Z,7.30
2022-12-23T16:29:34.282Z,3.27
2022-12-23T16:32:01.632Z,10.33
2022-12-23T16:34:24.627Z,8.00
2022-12-23T16:36:47.043Z,4.27
2022-12-23T16:39:21.849Z,8.10
2022-12-23T16:41:44.195Z,3.67
2022-12-23T16:44:06.478Z,6.57
2022-12-23T16:46:34.056Z,7.30
2022-12-23T16:48:58.520Z,9.03
2022-12-23T16:51:21.538Z,4.97
2022-12-23T16:53:43.839Z,5.07
2022-12-23T16:56:13.562Z,12.30
2022-12-23T16:58:35.805Z,7.60
2022-12-23T17:00:58.209Z,8.77
2022-12-23T17:03:20.834Z,6.93
2022-12-23T17:05:43.176Z,6.93
2022-12-23T17:08:05.427Z,8.63
2022-12-23T17:10:28.317Z,8.77
2022-12-23T17:12:50.928Z,6.30
2022-12-23T17:15:23.214Z,7.53
2022-12-23T17:17:45.604Z,5.37
2022-12-23T17:20:08.232Z,4.00
2022-12-23T17:22:33.277Z,7.03
2022-12-23T17:24:55.681Z,6.30
2022-12-23T17:27:20.664Z,7.77
2022-12-23T17:29:43.010Z,4.33
2022-12-23T17:32:05.629Z,6.97
2022-12-23T17:34:28.069Z,4.67
2022-12-23T17:36:51.239Z,12.83
2022-12-23T17:39:23.229Z,13.13
2022-12-23T17:41:45.710Z,10.27
2022-12-23T17:44:10.461Z,7.37
2022-12-23T17:46:33.023Z,5.43
2022-12-23T17:48:57.626Z,6.80
2022-12-23T17:51:21.230Z,10.80
2022-12-23T17:53:43.867Z,8.30
2022-12-23T17:56:16.416Z,11.57
2022-12-23T17:58:38.716Z,8.80
2022-12-23T18:01:01.058Z,7.13
2022-12-23T18:03:24.381Z,8.83
2022-12-23T18:05:46.666Z,6.63
2022-12-23T18:08:08.949Z,9.10
2022-12-23T18:10:33.534Z,9.27
2022-12-23T18:13:01.992Z,9.30
2022-12-23T18:15:30.909Z,8.63
2022-12-23T18:17:53.670Z,10.13
2022-12-23T18:20:26.243Z,10.20
2022-12-23T18:22:52.690Z,12.17
2022-12-23T18:25:21.778Z,9.13
2022-12-23T18:27:47.180Z,17.57
2022-12-23T18:30:10.122Z,7.90
2022-12-23T18:32:33.106Z,11.80
2022-12-23T18:34:56.197Z,11.90
2022-12-23T18:37:19.093Z,17.07
2022-12-23T18:39:45.901Z,14.80
2022-12-23T18:42:12.450Z,11.20
2022-12-23T18:44:35.985Z,11.70
2022-12-23T18:46:58.209Z,16.33
2022-12-23T18:49:20.513Z,12.30
2022-12-23T18:51:42.770Z,16.33
2022-12-23T18:54:05.340Z,14.10
2022-12-23T18:56:27.601Z,18.97
2022-12-23T18:58:49.798Z,13.03
2022-12-23T19:01:13.152Z,13.87
2022-12-23T19:03:35.396Z,15.80
2022-12-23T19:05:58.256Z,13.73
2022-12-23T19:08:26.175Z,24.57
2022-12-23T19:10:49.871Z,16.33
2022-12-23T19:13:12.115Z,11.37
2022-12-23T19:15:34.432Z,13.03
2022-12-23T19:17:56.699Z,18.47
2022-12-23T19:20:19.432Z,9.90
2022-12-23T19:22:44.877Z,16.60
2022-12-23T19:25:07.731Z,12.73
2022-12-23T19:27:29.977Z,12.67
2022-12-23T19:29:52.428Z,11.47
2022-12-23T19:32:14.826Z,15.87
2022-12-23T19:34:37.196Z,12.10
2022-12-23T19:37:00.118Z,19.07
2022-12-23T19:39:24.063Z,12.60
2022-12-23T19:41:46.384Z,13.10
2022-12-23T19:44:08.868Z,14.23
2022-12-23T19:46:31.173Z,14.37
2022-12-23T19:48:54.448Z,14.97
2022-12-23T19:51:16.997Z,14.27
2022-12-23T19:53:40.351Z,13.80
2022-12-23T19:56:04.859Z,12.20
2022-12-23T19:58:27.344Z,12.00
2022-12-23T20:00:49.668Z,18.17
2022-12-23T20:03:12.060Z,16.43
2022-12-23T20:05:34.254Z,16.77
2022-12-23T20:07:56.501Z,14.20
2022-12-23T20:10:18.786Z,14.47
2022-12-23T20:12:41.157Z,10.07
2022-12-23T20:15:03.576Z,13.93
2022-12-23T20:17:25.905Z,16.20
2022-12-23T20:19:48.282Z,9.17
2022-12-23T20:22:10.542Z,13.27
2022-12-23T20:24:34.767Z,11.97
2022-12-23T20:26:57.913Z,15.50
2022-12-23T20:29:20.156Z,18.10
2022-12-23T20:31:42.506Z,18.47
2022-12-23T20:34:05.477Z,17.20
2022-12-23T20:36:29.426Z,11.20
2022-12-23T20:38:52.384Z,15.67
2022-12-23T20:41:20.315Z,16.73
2022-12-23T20:43:42.621Z,14.63
2022-12-23T20:46:07.276Z,17.07
2022-12-23T20:48:34.085Z,16.63
2022-12-23T20:50:56.862Z,16.37
2022-12-23T20:53:19.232Z,15.40
2022-12-23T20:55:41.539Z,16.83
2022-12-23T20:58:23.884Z,13.67
2022-12-23T21:00:46.109Z,14.03
2022-12-23T21:03:10.604Z,16.23
2022-12-23T21:05:33.387Z,15.87
2022-12-23T21:07:55.605Z,15.03
2022-12-23T21:10:17.955Z,12.23
2022-12-23T21:12:40.386Z,14.17
2022-12-23T21:15:02.715Z,12.13
2022-12-23T21:17:25.834Z,9.97
2022-12-23T21:19:48.189Z,12.67
2022-12-23T21:22:10.544Z,14.10
2022-12-23T21:24:32.820Z,15.03
2022-12-23T21:26:57.095Z,13.73
2022-12-23T21:29:20.271Z,12.70
2022-12-23T21:31:42.874Z,14.03
2022-12-23T21:34:05.396Z,11.07
2022-12-23T21:36:29.492Z,10.27
2022-12-23T21:38:52.405Z,13.87
2022-12-23T21:41:16.251Z,15.00
2022-12-23T21:43:38.743Z,12.63
2022-12-23T21:46:02.685Z,14.07
2022-12-23T21:48:25.312Z,15.10
2022-12-23T21:50:47.573Z,12.20
2022-12-23T21:53:09.927Z,13.23
2022-12-23T21:55:32.152Z,16.23
2022-12-23T21:57:54.667Z,12.43
2022-12-23T22:00:16.995Z,7.03
2022-12-23T22:02:39.376Z,13.70
2022-12-23T22:05:02.163Z,11.90
2022-12-23T22:07:24.387Z,13.10
2022-12-23T22:09:46.623Z,12.00
2022-12-23T22:12:08.867Z,11.10
2022-12-23T22:14:31.115Z,14.33
2022-12-23T22:16:53.469Z,10.80
2022-12-23T22:19:15.907Z,14.73
2022-12-23T22:21:39.766Z,14.10
2022-12-23T22:24:03.011Z,13.73
2022-12-23T22:26:29.923Z,9.80
2022-12-23T22:28:52.355Z,10.67
2022-12-23T22:31:14.703Z,15.73
2022-12-23T22:33:37.000Z,10.93
2022-12-23T22:36:00.203Z,14.67
2022-12-23T22:38:22.441Z,12.60
2022-12-23T22:40:48.534Z,11.30
2022-12-23T22:43:10.801Z,14.60
2022-12-23T22:45:33.103Z,12.53
2022-12-23T22:47:55.448Z,11.17
2022-12-23T22:50:17.833Z,17.47
2022-12-23T22:52:40.088Z,15.43
2022-12-23T22:55:02.409Z,15.23
2022-12-23T22:57:24.670Z,16.40
2022-12-23T22:59:46.965Z,13.10
2022-12-23T23:02:12.389Z,14.17
2022-12-23T23:04:35.869Z,18.07
2022-12-23T23:06:58.217Z,12.20
2022-12-23T23:09:21.080Z,13.53
2022-12-23T23:11:44.399Z,13.03
2022-12-23T23:14:06.641Z,18.60
2022-12-23T23:16:28.899Z,15.03
2022-12-23T23:18:51.885Z,8.97
2022-12-23T23:21:14.637Z,13.13
2022-12-23T23:23:36.914Z,16.97
2022-12-23T23:25:59.117Z,9.93
2022-12-23T23:28:21.615Z,12.70
2022-12-23T23:30:43.836Z,14.00
2022-12-23T23:33:06.840Z,20.47
2022-12-23T23:35:29.049Z,8.83
2022-12-23T23:37:51.258Z,14.83
2022-12-23T23:40:13.614Z,17.50
2022-12-23T23:42:35.853Z,9.73
2022-12-23T23:44:58.128Z,13.63
2022-12-23T23:47:20.368Z,15.40
2022-12-23T23:49:42.792Z,16.97
2022-12-23T23:52:05.170Z,15.00
2022-12-23T23:54:27.427Z,13.77
2022-12-23T23:56:49.668Z,11.70
2022-12-23T23:59:12.072Z,15.10
